createdAt,value
2015-03-19T00:00:13.354Z,100972
2015-03-19T00:00:32.042Z,100988
2015-03-19T00:00:50.747Z,100985
2015-03-19T00:01:09.419Z,100980
2015-03-19T00:01:28.122Z,100978
2015-03-19T00:01:46.811Z,100985
2015-03-19T00:02:05.499Z,100981
2015-03-19T00:02:24.202Z,100983
2015-03-19T00:02:42.905Z,100994
2015-03-19T00:03:01.596Z,100988
2015-03-19T00:03:20.283Z,100985
2015-03-19T00:03:38.986Z,100991
2015-03-19T00:03:57.677Z,100980
2015-03-19T00:04:16.395Z,100983
2015-03-19T00:04:35.067Z,100985
2015-03-19T00:04:53.757Z,100994
2015-03-19T00:05:12.460Z,100988
2015-03-19T00:05:31.132Z,100983
2015-03-19T00:05:49.835Z,100983
2015-03-19T00:06:08.523Z,100985
2015-03-19T00:06:27.227Z,100988
2015-03-19T00:06:45.914Z,100983
2015-03-19T00:07:04.621Z,100991
2015-03-19T00:07:23.324Z,100983
2015-03-19T00:07:41.996Z,100988
2015-03-19T00:08:00.686Z,100985
2015-03-19T00:08:19.373Z,100985
2015-03-19T00:08:38.076Z,100991
2015-03-19T00:08:56.764Z,100991
2015-03-19T00:09:15.438Z,100991
2015-03-19T00:09:34.141Z,100984
2015-03-19T00:09:52.828Z,100988
2015-03-19T00:10:11.533Z,100984
2015-03-19T00:10:30.205Z,100984
2015-03-19T00:10:48.893Z,100991
2015-03-19T00:11:07.583Z,100991
2015-03-19T00:11:26.271Z,100991
2015-03-19T00:11:44.958Z,100997
2015-03-19T00:12:03.661Z,100994
2015-03-19T00:12:22.335Z,101003
2015-03-19T00:12:41.038Z,101005
2015-03-19T00:12:59.710Z,100991
2015-03-19T00:13:18.400Z,100988
2015-03-19T00:13:37.087Z,100994
2015-03-19T00:13:55.775Z,100988
2015-03-19T00:14:14.465Z,100994
2015-03-19T00:14:33.153Z,100991
2015-03-19T00:14:51.856Z,101003
2015-03-19T00:15:10.512Z,101003
2015-03-19T00:15:29.202Z,101003
2015-03-19T00:15:47.889Z,101000
2015-03-19T00:16:06.577Z,100997
2015-03-19T00:16:25.252Z,100994
2015-03-19T00:16:43.939Z,101000
2015-03-19T00:17:02.611Z,100997
2015-03-19T00:17:21.316Z,100997
2015-03-19T00:17:39.988Z,101000
2015-03-19T00:17:58.691Z,100991
2015-03-19T00:18:17.347Z,100994
2015-03-19T00:18:36.053Z,100994
2015-03-19T00:18:54.741Z,101006
2015-03-19T00:19:13.413Z,101003
2015-03-19T00:19:32.118Z,100994
2015-03-19T00:19:50.790Z,100997
2015-03-19T00:20:09.477Z,101000
2015-03-19T00:20:28.167Z,101003
2015-03-19T00:20:46.854Z,101002
2015-03-19T00:21:05.542Z,101000
2015-03-19T00:21:24.276Z,101000
2015-03-19T00:21:42.950Z,101000
2015-03-19T00:22:01.638Z,101002
2015-03-19T00:22:20.325Z,100997
2015-03-19T00:22:39.016Z,101002
2015-03-19T00:22:57.672Z,100991
2015-03-19T00:23:16.359Z,100999
2015-03-19T00:23:35.065Z,100994
2015-03-19T00:23:53.581Z,101002
2015-03-19T00:24:12.300Z,100999
2015-03-19T00:24:30.987Z,101002
2015-03-19T00:24:49.646Z,100994
2015-03-19T00:25:08.364Z,101002
2015-03-19T00:25:27.052Z,100994
2015-03-19T00:25:45.741Z,100999
2015-03-19T00:26:04.429Z,100999
2015-03-19T00:26:23.132Z,100994
2015-03-19T00:26:41.807Z,100999
2015-03-19T00:27:00.510Z,100993
2015-03-19T00:27:19.213Z,100993
2015-03-19T00:27:37.869Z,100991
2015-03-19T00:27:56.574Z,100996
2015-03-19T00:28:15.231Z,100996
2015-03-19T00:28:33.934Z,101002
2015-03-19T00:28:52.609Z,100996
2015-03-19T00:29:11.296Z,100991
2015-03-19T00:29:30.093Z,100988
2015-03-19T00:29:48.767Z,100993
2015-03-19T00:30:07.454Z,100990
2015-03-19T00:30:26.142Z,100985
2015-03-19T00:30:44.829Z,100996
2015-03-19T00:31:03.503Z,100988
2015-03-19T00:31:22.206Z,100990
2015-03-19T00:31:40.878Z,100996
2015-03-19T00:31:59.552Z,100999
2015-03-19T00:32:18.240Z,100980
2015-03-19T00:32:36.927Z,100996
2015-03-19T00:32:55.618Z,100996
2015-03-19T00:33:14.305Z,100985
2015-03-19T00:33:32.993Z,101002
2015-03-19T00:33:51.680Z,100987
2015-03-19T00:34:10.339Z,100993
2015-03-19T00:34:29.043Z,100985
2015-03-19T00:34:47.730Z,100999
2015-03-19T00:35:06.435Z,100993
2015-03-19T00:35:25.091Z,100993
2015-03-19T00:35:43.779Z,100993
2015-03-19T00:36:02.468Z,100996
2015-03-19T00:36:21.140Z,100985
2015-03-19T00:36:39.843Z,100987
2015-03-19T00:36:58.500Z,100985
2015-03-19T00:37:17.206Z,100993
2015-03-19T00:37:35.878Z,100990
2015-03-19T00:37:54.565Z,100993
2015-03-19T00:38:13.255Z,100985
2015-03-19T00:38:31.942Z,100996
2015-03-19T00:38:50.630Z,100987
2015-03-19T00:39:09.319Z,100982
2015-03-19T00:39:27.991Z,100993
2015-03-19T00:39:46.694Z,100982
2015-03-19T00:40:05.366Z,100987
2015-03-19T00:40:24.071Z,101004
2015-03-19T00:40:42.759Z,100990
2015-03-19T00:41:01.415Z,100987
2015-03-19T00:41:20.105Z,100996
2015-03-19T00:41:38.824Z,100987
2015-03-19T00:41:57.543Z,100985
2015-03-19T00:42:16.249Z,101002
2015-03-19T00:42:34.937Z,100990
2015-03-19T00:42:53.593Z,100996
2015-03-19T00:43:12.280Z,101005
2015-03-19T00:43:30.954Z,100993
2015-03-19T00:43:49.657Z,100999
2015-03-19T00:44:08.345Z,100987
2015-03-19T00:44:27.066Z,100990
2015-03-19T00:44:45.737Z,100999
2015-03-19T00:45:04.441Z,100985
2015-03-19T00:45:23.131Z,100983
2015-03-19T00:45:41.803Z,100996
2015-03-19T00:46:00.506Z,100990
2015-03-19T00:46:19.178Z,100990
2015-03-19T00:46:37.883Z,100987
2015-03-19T00:46:56.555Z,100993
2015-03-19T00:47:15.242Z,100993
2015-03-19T00:47:33.932Z,100985
2015-03-19T00:47:52.619Z,100987
2015-03-19T00:48:11.291Z,100985
2015-03-19T00:48:29.965Z,100987
2015-03-19T00:48:48.668Z,100985
2015-03-19T00:49:07.356Z,100985
2015-03-19T00:49:26.043Z,100987
2015-03-19T00:49:44.735Z,100987
2015-03-19T00:50:03.407Z,100985
2015-03-19T00:50:22.079Z,100990
2015-03-19T00:50:40.799Z,100993
2015-03-19T00:50:59.502Z,100993
2015-03-19T00:51:18.190Z,100985
2015-03-19T00:51:36.879Z,100987
2015-03-19T00:51:55.567Z,100980
2015-03-19T00:52:14.270Z,100987
2015-03-19T00:52:32.942Z,100987
2015-03-19T00:52:51.647Z,100990
2015-03-19T00:53:10.335Z,100993
2015-03-19T00:53:29.006Z,100990
2015-03-19T00:53:47.728Z,100987
2015-03-19T00:54:06.400Z,100985
2015-03-19T00:54:25.088Z,100999
2015-03-19T00:54:43.784Z,100988
2015-03-19T00:55:02.472Z,100993
2015-03-19T00:55:21.159Z,100999
2015-03-19T00:55:39.862Z,100985
2015-03-19T00:55:58.549Z,100988
2015-03-19T00:56:17.268Z,100991
2015-03-19T00:56:35.955Z,100996
2015-03-19T00:56:54.674Z,100993
2015-03-19T00:57:13.378Z,100983
2015-03-19T00:57:32.065Z,100993
2015-03-19T00:57:50.783Z,100988
2015-03-19T00:58:09.471Z,100996
2015-03-19T00:58:28.158Z,101002
2015-03-19T00:58:46.846Z,100994
2015-03-19T00:59:05.548Z,100991
2015-03-19T00:59:24.220Z,100985
2015-03-19T00:59:42.908Z,100988
2015-03-19T01:00:01.604Z,100991
2015-03-19T01:00:20.307Z,100991
2015-03-19T01:00:38.979Z,100985
2015-03-19T01:00:57.674Z,100988
2015-03-19T01:01:16.377Z,100980
2015-03-19T01:01:35.080Z,100994
2015-03-19T01:01:53.752Z,100980
2015-03-19T01:02:12.463Z,100983
2015-03-19T01:02:31.166Z,100985
2015-03-19T01:02:49.853Z,100991
2015-03-19T01:03:08.548Z,100985
2015-03-19T01:03:27.220Z,100985
2015-03-19T01:03:45.923Z,100994
2015-03-19T01:04:04.617Z,100983
2015-03-19T01:04:23.305Z,100983
2015-03-19T01:04:41.992Z,100981
2015-03-19T01:05:00.696Z,100978
2015-03-19T01:05:19.356Z,100991
2015-03-19T01:05:38.059Z,100983
2015-03-19T01:05:56.731Z,100978
2015-03-19T01:06:15.407Z,100988
2015-03-19T01:06:34.110Z,100983
2015-03-19T01:06:52.797Z,100981
2015-03-19T01:07:11.473Z,100981
2015-03-19T01:07:30.176Z,100983
2015-03-19T01:07:48.848Z,100975
2015-03-19T01:08:07.551Z,100978
2015-03-19T01:08:26.212Z,100978
2015-03-19T01:08:44.915Z,100978
2015-03-19T01:09:03.587Z,100988
2015-03-19T01:09:22.278Z,100975
2015-03-19T01:09:40.950Z,100997
2015-03-19T01:09:59.622Z,100991
2015-03-19T01:10:18.328Z,100985
2015-03-19T01:10:36.984Z,100978
2015-03-19T01:10:55.687Z,100985
2015-03-19T01:11:14.375Z,100988
2015-03-19T01:11:33.049Z,100991
2015-03-19T01:11:51.736Z,100984
2015-03-19T01:12:10.439Z,100991
2015-03-19T01:12:29.114Z,100991
2015-03-19T01:12:47.802Z,100978
2015-03-19T01:13:06.474Z,100983
2015-03-19T01:13:25.164Z,100983
2015-03-19T01:13:43.852Z,100981
2015-03-19T01:14:02.555Z,100981
2015-03-19T01:14:21.258Z,100988
2015-03-19T01:14:39.948Z,100983
2015-03-19T01:14:58.636Z,100981
2015-03-19T01:15:17.308Z,100997
2015-03-19T01:15:35.998Z,100983
2015-03-19T01:15:54.686Z,100978
2015-03-19T01:16:13.373Z,100983
2015-03-19T01:16:32.064Z,100985
2015-03-19T01:16:50.767Z,100985
2015-03-19T01:17:09.454Z,100988
2015-03-19T01:17:28.142Z,100988
2015-03-19T01:17:46.847Z,100983
2015-03-19T01:18:05.519Z,100972
2015-03-19T01:18:24.222Z,100981
2015-03-19T01:18:42.897Z,100988
2015-03-19T01:19:01.616Z,100978
2015-03-19T01:19:20.319Z,100988
2015-03-19T01:19:39.009Z,100981
2015-03-19T01:19:57.681Z,100983
2015-03-19T01:20:16.384Z,100983
2015-03-19T01:20:35.056Z,100985
2015-03-19T01:20:53.761Z,100983
2015-03-19T01:21:12.449Z,100983
2015-03-19T01:21:31.152Z,100981
2015-03-19T01:21:49.858Z,100978
2015-03-19T01:22:08.561Z,100983
2015-03-19T01:22:27.249Z,100991
2015-03-19T01:22:45.938Z,100983
2015-03-19T01:23:04.626Z,100991
2015-03-19T01:23:23.313Z,100983
2015-03-19T01:23:42.001Z,100978
2015-03-19T01:24:00.690Z,100991
2015-03-19T01:24:19.409Z,100985
2015-03-19T01:24:38.081Z,100981
2015-03-19T01:24:56.787Z,100981
2015-03-19T01:25:15.474Z,100985
2015-03-19T01:25:34.146Z,100981
2015-03-19T01:25:52.851Z,100984
2015-03-19T01:26:11.523Z,100984
2015-03-19T01:26:30.211Z,100984
2015-03-19T01:26:48.883Z,100984
2015-03-19T01:27:07.556Z,100981
2015-03-19T01:27:26.244Z,100981
2015-03-19T01:27:44.931Z,100978
2015-03-19T01:28:03.606Z,100981
2015-03-19T01:28:22.325Z,100984
2015-03-19T01:28:40.997Z,100984
2015-03-19T01:28:59.671Z,100984
2015-03-19T01:29:18.390Z,100975
2015-03-19T01:29:37.061Z,100975
2015-03-19T01:29:55.733Z,100978
2015-03-19T01:30:14.424Z,100981
2015-03-19T01:30:33.127Z,100984
2015-03-19T01:30:51.830Z,100978
2015-03-19T01:31:10.520Z,100978
2015-03-19T01:31:29.223Z,100978
2015-03-19T01:31:47.895Z,100986
2015-03-19T01:32:06.584Z,100981
2015-03-19T01:32:25.272Z,100986
2015-03-19T01:32:43.990Z,100984
2015-03-19T01:33:02.662Z,100984
2015-03-19T01:33:21.368Z,100981
2015-03-19T01:33:40.056Z,100984
2015-03-19T01:33:58.759Z,100986
2015-03-19T01:34:17.433Z,100984
2015-03-19T01:34:36.120Z,100984
2015-03-19T01:34:54.839Z,100975
2015-03-19T01:35:13.529Z,100994
2015-03-19T01:35:32.216Z,100986
2015-03-19T01:35:50.888Z,100984
2015-03-19T01:36:09.591Z,100986
2015-03-19T01:36:28.282Z,100986
2015-03-19T01:36:47.000Z,100981
2015-03-19T01:37:05.672Z,100986
2015-03-19T01:37:24.378Z,100986
2015-03-19T01:37:43.081Z,100986
2015-03-19T01:38:01.753Z,100981
2015-03-19T01:38:20.474Z,100978
2015-03-19T01:38:39.177Z,100984
2015-03-19T01:38:57.849Z,100984
2015-03-19T01:39:16.537Z,100981
2015-03-19T01:39:35.210Z,100975
2015-03-19T01:39:53.914Z,100984
2015-03-19T01:40:12.601Z,100978
2015-03-19T01:40:31.292Z,100975
2015-03-19T01:40:49.995Z,100981
2015-03-19T01:41:08.667Z,100975
2015-03-19T01:41:27.372Z,100975
2015-03-19T01:41:46.075Z,100975
2015-03-19T01:42:04.762Z,100981
2015-03-19T01:42:23.434Z,100975
2015-03-19T01:42:42.109Z,100983
2015-03-19T01:43:00.797Z,100981
2015-03-19T01:43:19.515Z,100983
2015-03-19T01:43:38.189Z,100975
2015-03-19T01:43:56.877Z,100975
2015-03-19T01:44:15.549Z,100975
2015-03-19T01:44:34.222Z,100972
2015-03-19T01:44:52.910Z,100975
2015-03-19T01:45:11.613Z,100972
2015-03-19T01:45:30.316Z,100972
2015-03-19T01:45:48.991Z,100972
2015-03-19T01:46:07.679Z,100983
2015-03-19T01:46:26.397Z,100972
2015-03-19T01:46:45.056Z,100980
2015-03-19T01:47:03.743Z,100974
2015-03-19T01:47:22.431Z,100971
2015-03-19T01:47:41.104Z,100977
2015-03-19T01:47:59.792Z,100974
2015-03-19T01:48:18.479Z,100980
2015-03-19T01:48:37.183Z,100980
2015-03-19T01:48:55.717Z,100980
2015-03-19T01:49:14.420Z,100965
2015-03-19T01:49:33.092Z,100977
2015-03-19T01:49:51.797Z,100974
2015-03-19T01:50:10.484Z,100971
2015-03-19T01:50:29.188Z,100983
2015-03-19T01:50:47.877Z,100980
2015-03-19T01:51:06.580Z,100980
2015-03-19T01:51:25.268Z,100977
2015-03-19T01:51:43.955Z,100980
2015-03-19T01:52:02.646Z,100979
2015-03-19T01:52:21.333Z,100979
2015-03-19T01:52:40.021Z,100976
2015-03-19T01:52:58.757Z,100979
2015-03-19T01:53:17.460Z,100985
2015-03-19T01:53:36.148Z,100976
2015-03-19T01:53:54.838Z,100979
2015-03-19T01:54:13.541Z,100982
2015-03-19T01:54:32.213Z,100985
2015-03-19T01:54:50.901Z,100982
2015-03-19T01:55:09.590Z,100982
2015-03-19T01:55:28.278Z,100985
2015-03-19T01:55:46.965Z,100976
2015-03-19T01:56:05.656Z,100976
2015-03-19T01:56:24.406Z,100976
2015-03-19T01:56:43.109Z,100979
2015-03-19T01:57:01.798Z,100982
2015-03-19T01:57:20.470Z,100974
2015-03-19T01:57:39.158Z,100982
2015-03-19T01:57:57.845Z,100982
2015-03-19T01:58:16.519Z,100974
2015-03-19T01:58:35.207Z,100977
2015-03-19T01:58:53.910Z,100982
2015-03-19T01:59:12.585Z,100977
2015-03-19T01:59:31.272Z,100982
2015-03-19T01:59:49.944Z,100982
2015-03-19T02:00:08.649Z,100977
2015-03-19T02:00:27.321Z,100980
2015-03-19T02:00:46.008Z,100977
2015-03-19T02:01:04.680Z,100971
2015-03-19T02:01:23.371Z,100980
2015-03-19T02:01:42.043Z,100980
2015-03-19T02:02:00.715Z,100974
2015-03-19T02:02:19.420Z,100971
2015-03-19T02:02:38.076Z,100971
2015-03-19T02:02:56.795Z,100983
2015-03-19T02:03:15.469Z,100990
2015-03-19T02:03:34.140Z,100977
2015-03-19T02:03:52.828Z,100974
2015-03-19T02:04:11.500Z,100980
2015-03-19T02:04:30.189Z,100974
2015-03-19T02:04:48.877Z,100983
2015-03-19T02:05:07.580Z,100985
2015-03-19T02:05:26.286Z,100985
2015-03-19T02:05:44.974Z,100980
2015-03-19T02:06:03.661Z,100985
2015-03-19T02:06:22.366Z,100980
2015-03-19T02:06:41.069Z,100985
2015-03-19T02:06:59.757Z,100980
2015-03-19T02:07:18.444Z,100991
2015-03-19T02:07:37.150Z,100991
2015-03-19T02:07:55.822Z,100980
2015-03-19T02:08:14.510Z,100991
2015-03-19T02:08:33.199Z,100983
2015-03-19T02:08:51.902Z,100985
2015-03-19T02:09:10.590Z,100980
2015-03-19T02:09:29.280Z,100991
2015-03-19T02:09:47.968Z,100994
2015-03-19T02:10:06.640Z,100988
2015-03-19T02:10:25.312Z,100985
2015-03-19T02:10:44.032Z,100993
2015-03-19T02:11:02.704Z,100996
2015-03-19T02:11:21.392Z,100977
2015-03-19T02:11:40.067Z,100985
2015-03-19T02:11:58.754Z,100985
2015-03-19T02:12:17.426Z,100985
2015-03-19T02:12:36.116Z,100996
2015-03-19T02:12:54.803Z,100988
2015-03-19T02:13:13.475Z,100985
2015-03-19T02:13:32.162Z,100990
2015-03-19T02:13:50.852Z,100990
2015-03-19T02:14:09.555Z,100985
2015-03-19T02:14:28.258Z,100985
2015-03-19T02:14:46.949Z,100988
2015-03-19T02:15:05.636Z,100988
2015-03-19T02:15:24.324Z,100980
2015-03-19T02:15:43.043Z,100990
2015-03-19T02:16:01.715Z,100985
2015-03-19T02:16:20.418Z,100988
2015-03-19T02:16:39.106Z,100990
2015-03-19T02:16:57.812Z,100990
2015-03-19T02:17:16.515Z,100993
2015-03-19T02:17:35.171Z,100988
2015-03-19T02:17:53.861Z,100996
2015-03-19T02:18:12.548Z,100996
2015-03-19T02:18:31.236Z,100996
2015-03-19T02:18:49.911Z,100999
2015-03-19T02:19:08.598Z,100996
2015-03-19T02:19:27.270Z,101002
2015-03-19T02:19:45.958Z,100999
2015-03-19T02:20:04.664Z,100999
2015-03-19T02:20:23.367Z,100991
2015-03-19T02:20:42.070Z,100988
2015-03-19T02:21:00.760Z,100991
2015-03-19T02:21:19.463Z,100988
2015-03-19T02:21:38.166Z,100991
2015-03-19T02:21:56.871Z,100991
2015-03-19T02:22:15.543Z,100991
2015-03-19T02:22:34.230Z,100996
2015-03-19T02:22:52.918Z,100996
2015-03-19T02:23:11.607Z,100996
2015-03-19T02:23:30.310Z,101005
2015-03-19T02:23:48.982Z,100999
2015-03-19T02:24:07.688Z,100999
2015-03-19T02:24:26.376Z,101005
2015-03-19T02:24:45.048Z,100991
2015-03-19T02:25:03.737Z,101008
2015-03-19T02:25:22.425Z,100999
2015-03-19T02:25:41.112Z,100991
2015-03-19T02:25:59.800Z,100997
2015-03-19T02:26:18.505Z,100991
2015-03-19T02:26:37.192Z,100997
2015-03-19T02:26:55.880Z,100997
2015-03-19T02:27:14.570Z,100985
2015-03-19T02:27:33.242Z,100985
2015-03-19T02:27:51.945Z,101000
2015-03-19T02:28:10.620Z,100994
2015-03-19T02:28:29.292Z,100997
2015-03-19T02:28:47.980Z,100988
2015-03-19T02:29:06.667Z,100997
2015-03-19T02:29:25.341Z,100997
2015-03-19T02:29:44.029Z,100983
2015-03-19T02:30:02.716Z,100997
2015-03-19T02:30:21.407Z,100997
2015-03-19T02:30:40.094Z,100997
2015-03-19T02:30:58.782Z,100994
2015-03-19T02:31:17.487Z,101000
2015-03-19T02:31:36.159Z,100994
2015-03-19T02:31:54.846Z,101003
2015-03-19T02:32:13.549Z,101005
2015-03-19T02:32:32.239Z,100991
2015-03-19T02:32:50.926Z,100997
2015-03-19T02:33:09.614Z,101005
2015-03-19T02:33:28.320Z,101011
2015-03-19T02:33:46.992Z,100994
2015-03-19T02:34:05.679Z,101000
2015-03-19T02:34:24.369Z,101002
2015-03-19T02:34:43.072Z,100994
2015-03-19T02:35:01.775Z,100997
2015-03-19T02:35:20.462Z,101002
2015-03-19T02:35:39.168Z,101011
2015-03-19T02:35:57.855Z,101005
2015-03-19T02:36:16.543Z,100997
2015-03-19T02:36:35.249Z,100991
2015-03-19T02:36:53.952Z,100997
2015-03-19T02:37:12.639Z,101005
2015-03-19T02:37:31.329Z,101005
2015-03-19T02:37:50.016Z,100994
2015-03-19T02:38:08.704Z,100994
2015-03-19T02:38:27.407Z,100997
2015-03-19T02:38:46.096Z,100999
2015-03-19T02:39:04.784Z,100988
2015-03-19T02:39:23.471Z,100994
2015-03-19T02:39:42.162Z,100991
2015-03-19T02:40:00.834Z,100988
2015-03-19T02:40:19.521Z,100994
2015-03-19T02:40:38.211Z,100999
2015-03-19T02:40:56.898Z,100994
2015-03-19T02:41:15.601Z,100997
2015-03-19T02:41:34.305Z,100997
2015-03-19T02:41:52.978Z,100997
2015-03-19T02:42:11.666Z,100983
2015-03-19T02:42:30.369Z,100999
2015-03-19T02:42:49.044Z,101005
2015-03-19T02:43:07.731Z,100988
2015-03-19T02:43:26.419Z,100991
2015-03-19T02:43:45.108Z,100991
2015-03-19T02:44:03.812Z,100983
2015-03-19T02:44:22.499Z,100991
2015-03-19T02:44:41.187Z,100997
2015-03-19T02:44:59.893Z,100985
2015-03-19T02:45:18.565Z,100991
2015-03-19T02:45:37.299Z,100994
2015-03-19T02:45:55.973Z,100991
2015-03-19T02:46:14.676Z,100997
2015-03-19T02:46:33.379Z,100994
2015-03-19T02:46:52.053Z,100994
2015-03-19T02:47:10.756Z,100997
2015-03-19T02:47:29.428Z,100983
2015-03-19T02:47:48.115Z,100994
2015-03-19T02:48:06.806Z,100985
2015-03-19T02:48:25.493Z,100997
2015-03-19T02:48:44.197Z,101000
2015-03-19T02:49:02.870Z,100997
2015-03-19T02:49:21.558Z,100991
2015-03-19T02:49:40.230Z,100988
2015-03-19T02:49:58.935Z,100997
2015-03-19T02:50:17.622Z,100994
2015-03-19T02:50:36.310Z,100985
2015-03-19T02:50:54.997Z,100991
2015-03-19T02:51:13.704Z,101000
2015-03-19T02:51:32.375Z,100991
2015-03-19T02:51:51.063Z,100988
2015-03-19T02:52:09.752Z,100981
2015-03-19T02:52:28.440Z,100991
2015-03-19T02:52:47.143Z,100997
2015-03-19T02:53:05.818Z,100988
2015-03-19T02:53:24.505Z,100985
2015-03-19T02:53:43.193Z,100991
2015-03-19T02:54:01.865Z,100984
2015-03-19T02:54:20.554Z,100994
2015-03-19T02:54:39.226Z,100991
2015-03-19T02:54:57.914Z,100991
2015-03-19T02:55:16.604Z,100991
2015-03-19T02:55:35.292Z,100997
2015-03-19T02:55:54.010Z,100997
2015-03-19T02:56:12.684Z,100994
2015-03-19T02:56:31.387Z,100991
2015-03-19T02:56:50.091Z,101002
2015-03-19T02:57:08.794Z,101002
2015-03-19T02:57:27.483Z,100997
2015-03-19T02:57:46.155Z,100994
2015-03-19T02:58:04.858Z,101000
2015-03-19T02:58:23.549Z,100994
2015-03-19T02:58:42.236Z,100997
2015-03-19T02:59:00.924Z,100997
2015-03-19T02:59:19.629Z,101000
2015-03-19T02:59:38.301Z,100997
2015-03-19T02:59:57.004Z,100997
2015-03-19T03:00:15.676Z,101002
2015-03-19T03:00:34.382Z,101002
2015-03-19T03:00:53.069Z,100997
2015-03-19T03:01:11.757Z,101002
2015-03-19T03:01:30.462Z,101000
2015-03-19T03:01:49.165Z,100991
2015-03-19T03:02:07.868Z,100997
2015-03-19T03:02:26.558Z,100997
2015-03-19T03:02:45.261Z,101000
2015-03-19T03:03:03.964Z,101000
2015-03-19T03:03:22.636Z,101000
2015-03-19T03:03:41.341Z,100988
2015-03-19T03:03:59.997Z,100997
2015-03-19T03:04:18.700Z,101003
2015-03-19T03:04:37.391Z,101002
2015-03-19T03:04:56.078Z,101005
2015-03-19T03:05:14.750Z,100997
2015-03-19T03:05:33.456Z,100994
2015-03-19T03:05:52.144Z,101000
2015-03-19T03:06:10.847Z,101014
2015-03-19T03:06:29.519Z,101002
2015-03-19T03:06:48.255Z,101002
2015-03-19T03:07:06.927Z,100997
2015-03-19T03:07:25.615Z,101011
2015-03-19T03:07:44.336Z,101002
2015-03-19T03:08:02.993Z,101011
2015-03-19T03:08:21.696Z,100997
2015-03-19T03:08:40.385Z,101002
2015-03-19T03:08:59.073Z,100997
2015-03-19T03:09:17.745Z,101002
2015-03-19T03:09:36.432Z,101011
2015-03-19T03:09:55.122Z,101002
2015-03-19T03:10:13.809Z,101011
2015-03-19T03:10:32.512Z,101008
2015-03-19T03:10:51.203Z,101008
2015-03-19T03:11:09.875Z,100997
2015-03-19T03:11:28.546Z,100997
2015-03-19T03:11:47.236Z,101008
2015-03-19T03:12:05.939Z,101017
2015-03-19T03:12:24.627Z,101011
2015-03-19T03:12:43.314Z,101011
2015-03-19T03:13:02.005Z,101011
2015-03-19T03:13:20.676Z,101008
2015-03-19T03:13:39.348Z,101005
2015-03-19T03:13:58.038Z,101011
2015-03-19T03:14:16.741Z,101016
2015-03-19T03:14:35.413Z,101014
2015-03-19T03:14:54.118Z,101013
2015-03-19T03:15:12.790Z,101002
2015-03-19T03:15:31.477Z,101005
2015-03-19T03:15:50.196Z,100999
2015-03-19T03:16:08.887Z,101005
2015-03-19T03:16:27.574Z,101011
2015-03-19T03:16:46.293Z,101013
2015-03-19T03:17:04.967Z,101008
2015-03-19T03:17:23.639Z,101011
2015-03-19T03:17:42.342Z,101016
2015-03-19T03:18:01.031Z,101016
2015-03-19T03:18:19.703Z,101010
2015-03-19T03:18:38.406Z,101019
2015-03-19T03:18:57.094Z,101025
2015-03-19T03:19:15.768Z,101022
2015-03-19T03:19:34.486Z,101022
2015-03-19T03:19:53.143Z,101013
2015-03-19T03:20:11.833Z,101019
2015-03-19T03:20:30.521Z,101019
2015-03-19T03:20:49.208Z,101010
2015-03-19T03:21:07.899Z,101022
2015-03-19T03:21:26.586Z,101010
2015-03-19T03:21:45.274Z,101025
2015-03-19T03:22:03.961Z,101031
2015-03-19T03:22:22.666Z,101022
2015-03-19T03:22:41.338Z,101022
2015-03-19T03:23:00.026Z,101022
2015-03-19T03:23:18.700Z,101022
2015-03-19T03:23:37.388Z,101010
2015-03-19T03:23:56.075Z,101028
2015-03-19T03:24:14.764Z,101016
2015-03-19T03:24:33.451Z,101028
2015-03-19T03:24:52.155Z,101028
2015-03-19T03:25:10.842Z,101025
2015-03-19T03:25:29.533Z,101033
2015-03-19T03:25:48.220Z,101019
2015-03-19T03:26:06.908Z,101019
2015-03-19T03:26:25.614Z,101022
2015-03-19T03:26:44.317Z,101019
2015-03-19T03:27:03.036Z,101022
2015-03-19T03:27:21.709Z,101025
2015-03-19T03:27:40.397Z,101027
2015-03-19T03:27:59.084Z,101024
2015-03-19T03:28:17.803Z,101019
2015-03-19T03:28:36.494Z,101022
2015-03-19T03:28:55.166Z,101024
2015-03-19T03:29:13.869Z,101039
2015-03-19T03:29:32.558Z,101021
2015-03-19T03:29:51.246Z,101027
2015-03-19T03:30:09.902Z,101033
2015-03-19T03:30:28.591Z,101021
2015-03-19T03:30:47.310Z,101027
2015-03-19T03:31:05.966Z,101027
2015-03-19T03:31:24.638Z,101030
2015-03-19T03:31:43.343Z,101033
2015-03-19T03:32:02.031Z,101024
2015-03-19T03:32:20.718Z,101021
2015-03-19T03:32:39.393Z,101027
2015-03-19T03:32:58.081Z,101039
2015-03-19T03:33:16.768Z,101033
2015-03-19T03:33:35.442Z,101030
2015-03-19T03:33:54.114Z,101033
2015-03-19T03:34:12.817Z,101030
2015-03-19T03:34:31.489Z,101036
2015-03-19T03:34:50.179Z,101033
2015-03-19T03:35:08.882Z,101039
2015-03-19T03:35:27.554Z,101030
2015-03-19T03:35:46.292Z,101036
2015-03-19T03:36:04.995Z,101027
2015-03-19T03:36:23.683Z,101036
2015-03-19T03:36:42.372Z,101036
2015-03-19T03:37:01.091Z,101030
2015-03-19T03:37:19.794Z,101041
2015-03-19T03:37:38.481Z,101033
2015-03-19T03:37:57.170Z,101030
2015-03-19T03:38:15.842Z,101039
2015-03-19T03:38:34.545Z,101024
2015-03-19T03:38:53.220Z,101036
2015-03-19T03:39:11.892Z,101021
2015-03-19T03:39:30.579Z,101027
2015-03-19T03:39:49.270Z,101024
2015-03-19T03:40:07.957Z,101021
2015-03-19T03:40:26.645Z,101027
2015-03-19T03:40:45.332Z,101030
2015-03-19T03:41:04.053Z,101027
2015-03-19T03:41:22.740Z,101018
2015-03-19T03:41:41.428Z,101029
2015-03-19T03:42:00.102Z,101024
2015-03-19T03:42:18.805Z,101027
2015-03-19T03:42:37.492Z,101021
2015-03-19T03:42:56.182Z,101027
2015-03-19T03:43:14.885Z,101024
2015-03-19T03:43:33.573Z,101021
2015-03-19T03:43:52.291Z,101021
2015-03-19T03:44:10.951Z,101024
2015-03-19T03:44:29.654Z,101018
2015-03-19T03:44:48.357Z,101021
2015-03-19T03:45:07.047Z,101026
2015-03-19T03:45:25.750Z,101026
2015-03-19T03:45:44.438Z,101035
2015-03-19T03:46:03.143Z,101023
2015-03-19T03:46:21.815Z,101029
2015-03-19T03:46:40.487Z,101029
2015-03-19T03:46:59.174Z,101023
2015-03-19T03:47:17.864Z,101029
2015-03-19T03:47:36.567Z,101023
2015-03-19T03:47:55.239Z,101032
2015-03-19T03:48:13.929Z,101032
2015-03-19T03:48:32.617Z,101029
2015-03-19T03:48:51.320Z,101026
2015-03-19T03:49:09.978Z,101023
2015-03-19T03:49:28.681Z,101029
2015-03-19T03:49:47.353Z,101026
2015-03-19T03:50:06.056Z,101035
2015-03-19T03:50:24.777Z,101032
2015-03-19T03:50:43.465Z,101026
2015-03-19T03:51:02.136Z,101032
2015-03-19T03:51:20.843Z,101032
2015-03-19T03:51:39.530Z,101038
2015-03-19T03:51:58.233Z,101032
2015-03-19T03:52:16.938Z,101032
2015-03-19T03:52:35.610Z,101032
2015-03-19T03:52:54.313Z,101041
2015-03-19T03:53:13.016Z,101032